Florence, OR

3:47 AM PST on February 07, 2016 (GMT -0800)
Collard Lake | | Change Station
CLOSE
Current Station
Personal Weather Station
Location: Florence, OR
Elevation: 174 ft
Nearby Weather Stations

Elev 174 ft 44.04 °N, 124.08 °W | Updated 19 seconds ago

Overcast
Overcast
49.3 °F
Feels Like 49 °F
N
0.0
Wind Variable Wind from SSW

Today
High -- | Low -- °F
--% Chance of Precip.
Yesterday
High -- | Low -- °F
Precip. -- in
Pressure 30.46 in
Visibility 5.0 miles
Clouds Overcast 1300 ft
Windchill 49 °F
Dew Point 49 °F
Humidity 99%
Rainfall 0.00 in
Snow Depth Not available.
7:26 AM 5:34 PM
Waning Crescent, 2% visible
METAR KONP 071135Z AUTO 09007KT 5SM BR OVC013 08/08 A3046 RMK AO2
Pressure 30.46 in
Visibility 5.0 miles
Clouds Overcast 1300 ft
Windchill 49 °F
Dew Point 49 °F
Humidity 99%
Rainfall 0.00 in
Snow Depth Not available.
7:26 AM 5:34 PM
Waning Crescent, 2% visible
METAR KONP 071135Z AUTO 09007KT 5SM BR OVC013 08/08 A3046 RMK AO2

10-Day Weather Forecast

Almanac

Astronomy

Feb. 07, 2016 Rise Set
Actual Time
Civil Twilight
Nautical Twilight
Astronomical Twilight
Moon
Length of Visible Light
Length of Day
Tomorrow will be .
, % of the Moon is Illuminated

Today's Extremes

State Highs State Lows

Community

WunderPhotos

Upload Photos

1,891,182 photos uploaded!

WunderBlog® & News

Nearby

Air Quality

  Air Quality AQ Index Pollutant
Not available.

Snow Depth

Station Depth Elevation

Earthquake Activity

City Distance Mag. Time & Date
Minimum magnitude displayed is 2.5.

Coastal Water Temperatures

Place Temperature

Stations

Nearby Weather Stations

Station Location Temp. Windchill Dew Point Humidity Wind Precip. Elev Updated Type
                   

Watches & Warnings

There are currently no watches in effect.